Time;durP1;ratioP1;P1;durP2;ratioP2;P2;SDS_P1;SDS_P2;PMS_P1;PMS_P2;Temp;Humidity;BMP_temperature;BMP_pressure;BME280_temperature;BME280_humidity;BME280_pressure;Samples;Min_cycle;Max_cycle;Signal;HPM_P1;HPM_P2
2021/05/16 00:01:19;;;;;;;2.38;1.33;;;8.60;99.90;;;;;;5066659;28;20230;-70
2021/05/16 00:03:47;;;;;;;2.25;1.40;;;8.60;99.90;;;;;;5066546;28;20204;-70
2021/05/16 00:06:14;;;;;;;1.75;1.30;;;8.60;99.90;;;;;;5066186;28;20219;-71
2021/05/16 00:08:40;;;;;;;1.60;1.25;;;8.60;99.90;;;;;;5065735;28;20197;-71
2021/05/16 00:11:07;;;;;;;1.95;1.10;;;8.60;99.90;;;;;;5065965;28;20289;-70
2021/05/16 00:13:33;;;;;;;1.35;1.10;;;8.60;99.90;;;;;;5066432;28;20298;-70
2021/05/16 00:16:00;;;;;;;2.05;1.85;;;8.70;99.90;;;;;;5067321;28;20200;-70
2021/05/16 00:18:26;;;;;;;2.65;1.48;;;8.60;99.90;;;;;;5068867;28;20243;-70
2021/05/16 00:20:54;;;;;;;3.75;1.45;;;8.70;99.90;;;;;;5069490;28;20285;-70
2021/05/16 00:23:20;;;;;;;1.20;1.10;;;8.70;99.90;;;;;;5070709;28;20253;-70
2021/05/16 00:25:46;;;;;;;2.83;1.40;;;8.70;99.90;;;;;;5070424;28;20200;-70
2021/05/16 00:28:12;;;;;;;3.85;1.70;;;8.70;99.90;;;;;;5070432;28;20204;-71
2021/05/16 00:30:39;;;;;;;2.67;1.50;;;8.70;99.90;;;;;;5070458;28;20224;-71
2021/05/16 00:33:06;;;;;;;1.90;1.38;;;8.70;99.90;;;;;;5070639;28;20207;-71
2021/05/16 00:35:37;;;;;;;2.50;1.77;;;8.80;99.90;;;;;;5070187;28;20201;-70
2021/05/16 00:38:05;;;;;;;1.90;1.60;;;8.80;99.90;;;;;;5069425;28;20207;-70
2021/05/16 00:40:33;;;;;;;1.90;1.20;;;8.80;99.90;;;;;;5067049;28;20220;-71
2021/05/16 00:42:59;;;;;;;3.70;1.45;;;8.80;99.90;;;;;;5049591;28;20240;-71
2021/05/16 00:45:27;;;;;;;3.63;1.20;;;8.90;99.90;;;;;;5050953;28;20205;-70
2021/05/16 00:47:55;;;;;;;1.75;1.30;;;8.80;99.90;;;;;;5053619;28;20224;-70
2021/05/16 00:50:23;;;;;;;4.50;1.17;;;8.90;99.90;;;;;;5053910;28;20221;-70
2021/05/16 00:52:50;;;;;;;2.33;1.60;;;8.90;99.90;;;;;;5053817;28;20255;-70
2021/05/16 00:55:18;;;;;;;1.70;1.30;;;8.90;99.90;;;;;;5053818;28;20213;-70
2021/05/16 00:57:45;;;;;;;3.50;1.60;;;8.90;99.90;;;;;;5053471;28;20683;-70
2021/05/16 01:00:14;;;;;;;2.10;1.50;;;8.90;99.90;;;;;;5053523;28;20225;-70
2021/05/16 01:02:40;;;;;;;3.83;1.42;;;8.90;99.90;;;;;;5053603;28;20201;-69
2021/05/16 01:05:08;;;;;;;2.95;1.30;;;8.90;99.90;;;;;;5053559;28;20208;-69
2021/05/16 01:07:36;;;;;;;2.70;1.20;;;8.90;99.90;;;;;;5053603;28;20221;-69
2021/05/16 01:10:05;;;;;;;2.10;1.30;;;9.00;99.90;;;;;;5053064;28;20221;-69
2021/05/16 01:12:39;;;;;;;3.10;1.70;;;8.90;99.90;;;;;;5053592;28;20639;-70
2021/05/16 01:15:07;;;;;;;2.75;1.38;;;8.90;99.90;;;;;;5053186;28;20204;-70
2021/05/16 01:17:33;;;;;;;2.20;1.48;;;8.90;99.90;;;;;;5053512;28;20673;-69
2021/05/16 01:19:59;;;;;;;1.48;1.17;;;8.90;99.90;;;;;;5052922;28;20275;-71
2021/05/16 01:22:27;;;;;;;3.33;1.35;;;8.90;99.90;;;;;;5053185;28;20213;-70
2021/05/16 01:24:53;;;;;;;5.50;1.60;;;8.90;99.90;;;;;;5053203;28;20243;-70
2021/05/16 01:27:20;;;;;;;2.53;1.38;;;8.90;99.90;;;;;;5053063;28;20320;-71
2021/05/16 01:29:46;;;;;;;4.70;1.75;;;8.90;99.90;;;;;;5052993;28;20414;-71
2021/05/16 01:32:12;;;;;;;1.52;1.35;;;8.90;99.90;;;;;;5052948;28;20204;-70
2021/05/16 01:34:40;;;;;;;2.90;1.63;;;8.90;99.90;;;;;;5053111;28;20212;-70
2021/05/16 01:37:09;;;;;;;3.13;1.40;;;8.90;99.90;;;;;;5052921;28;20205;-70
2021/05/16 01:39:36;;;;;;;1.90;1.30;;;8.90;99.90;;;;;;5052784;28;20841;-70
2021/05/16 01:42:03;;;;;;;3.10;1.60;;;8.90;99.90;;;;;;5053443;28;20263;-71
2021/05/16 01:44:31;;;;;;;3.25;1.85;;;9.00;99.90;;;;;;5053325;28;20197;-70
2021/05/16 01:47:01;;;;;;;1.17;1.08;;;9.00;99.90;;;;;;5053051;28;20217;-70
2021/05/16 01:49:27;;;;;;;4.30;2.20;;;9.00;99.90;;;;;;5053020;28;20681;-71
2021/05/16 01:51:53;;;;;;;2.55;1.40;;;9.00;99.90;;;;;;5052907;28;20232;-70
2021/05/16 01:54:19;;;;;;;3.20;1.75;;;8.90;99.90;;;;;;5053115;28;20208;-71
2021/05/16 01:56:47;;;;;;;2.92;1.73;;;8.90;99.90;;;;;;5052460;28;20209;-70
2021/05/16 01:59:15;;;;;;;1.83;1.40;;;8.80;99.90;;;;;;5052907;28;20601;-71
2021/05/16 02:01:42;;;;;;;1.95;1.60;;;8.80;99.90;;;;;;5052958;28;20738;-71
2021/05/16 02:04:10;;;;;;;2.00;1.52;;;8.80;99.90;;;;;;5052591;28;20201;-70
2021/05/16 02:06:36;;;;;;;4.05;1.67;;;8.70;99.90;;;;;;5052969;28;20220;-70
2021/05/16 02:09:03;;;;;;;3.05;1.65;;;8.70;99.90;;;;;;5052588;28;20205;-71
2021/05/16 02:11:30;;;;;;;3.25;1.63;;;8.70;99.90;;;;;;5065435;28;20636;-70
2021/05/16 02:13:57;;;;;;;2.78;1.90;;;8.80;99.90;;;;;;5072845;28;20202;-71
2021/05/16 02:16:23;;;;;;;1.77;1.48;;;8.70;99.90;;;;;;5072886;28;20208;-70
2021/05/16 02:18:49;;;;;;;2.65;1.75;;;8.70;99.90;;;;;;5072593;28;20201;-71
2021/05/16 02:21:16;;;;;;;2.28;1.38;;;8.70;99.90;;;;;;5072774;28;20225;-71
2021/05/16 02:23:42;;;;;;;1.75;1.55;;;8.60;99.90;;;;;;5072775;28;20261;-71
2021/05/16 02:26:08;;;;;;;2.75;1.95;;;8.70;99.90;;;;;;5072652;28;20288;-70
2021/05/16 02:28:35;;;;;;;7.20;1.75;;;8.60;99.90;;;;;;5072242;28;20200;-71
2021/05/16 02:31:09;;;;;;;1.45;1.35;;;8.60;99.90;;;;;;5072472;28;20702;-70
2021/05/16 02:33:35;;;;;;;2.45;1.73;;;8.60;99.90;;;;;;5072737;28;20200;-70
2021/05/16 02:36:01;;;;;;;4.05;2.15;;;8.60;99.90;;;;;;5072129;28;20663;-70
2021/05/16 02:38:27;;;;;;;2.28;1.70;;;8.60;99.90;;;;;;5072221;28;20220;-70
2021/05/16 02:40:55;;;;;;;2.15;1.52;;;8.60;99.90;;;;;;5071937;28;20278;-71
2021/05/16 02:43:22;;;;;;;4.43;2.15;;;8.60;99.90;;;;;;5072498;28;20215;-71
2021/05/16 02:45:48;;;;;;;3.10;1.63;;;8.50;99.90;;;;;;5072301;28;20204;-70
2021/05/16 02:48:15;;;;;;;2.83;1.42;;;8.60;99.90;;;;;;5071731;28;20232;-71
2021/05/16 02:50:41;;;;;;;4.65;1.40;;;8.60;99.90;;;;;;5072356;28;20225;-70
2021/05/16 02:53:08;;;;;;;3.00;2.17;;;8.60;99.90;;;;;;5069729;28;20216;-70
2021/05/16 02:55:34;;;;;;;1.95;1.65;;;8.60;99.90;;;;;;5072183;28;20204;-71
2021/05/16 02:58:00;;;;;;;2.55;1.70;;;8.60;99.90;;;;;;5071680;28;20626;-71
2021/05/16 03:00:27;;;;;;;2.40;1.67;;;8.70;99.90;;;;;;5071958;28;20216;-71
2021/05/16 03:02:53;;;;;;;2.35;1.83;;;8.70;99.90;;;;;;5071960;28;20232;-71
2021/05/16 03:05:20;;;;;;;5.13;2.20;;;8.70;99.90;;;;;;5071653;28;20204;-71
2021/05/16 03:07:46;;;;;;;2.75;1.80;;;8.80;99.90;;;;;;5070364;28;20269;-71
2021/05/16 03:10:13;;;;;;;2.20;1.40;;;8.80;99.90;;;;;;5071697;28;20224;-70
2021/05/16 03:12:39;;;;;;;2.40;1.67;;;8.80;99.90;;;;;;5071696;28;20560;-70
2021/05/16 03:15:06;;;;;;;3.75;1.85;;;8.80;99.90;;;;;;5071872;28;20200;-71
2021/05/16 03:17:33;;;;;;;2.58;1.80;;;8.90;99.90;;;;;;5071749;28;20200;-70
2021/05/16 03:19:59;;;;;;;6.43;1.73;;;8.90;99.90;;;;;;5071195;28;20829;-70
2021/05/16 03:22:26;;;;;;;2.13;1.42;;;8.90;99.90;;;;;;5071731;28;20223;-71
2021/05/16 03:24:52;;;;;;;2.72;1.90;;;8.90;99.90;;;;;;5070665;28;20276;-70
2021/05/16 03:27:18;;;;;;;3.15;1.50;;;8.90;99.90;;;;;;5071455;28;20224;-70
2021/05/16 03:29:45;;;;;;;1.63;1.52;;;8.90;99.90;;;;;;5071130;28;20629;-70
2021/05/16 03:32:11;;;;;;;3.47;1.83;;;8.90;99.90;;;;;;5071275;28;20200;-70
2021/05/16 03:34:37;;;;;;;2.10;1.30;;;9.00;99.90;;;;;;5071449;28;20216;-71
2021/05/16 03:37:03;;;;;;;2.72;1.58;;;9.00;99.90;;;;;;5071057;28;20201;-70
2021/05/16 03:39:31;;;;;;;1.85;1.45;;;9.00;99.90;;;;;;5071051;28;20211;-71
2021/05/16 03:41:57;;;;;;;2.00;1.75;;;9.00;99.90;;;;;;5071124;28;20758;-71
2021/05/16 03:44:24;;;;;;;6.57;1.50;;;8.90;99.90;;;;;;5071199;28;20200;-71
2021/05/16 03:46:50;;;;;;;1.95;1.30;;;8.90;99.90;;;;;;5071099;28;20235;-71
2021/05/16 03:49:16;;;;;;;2.22;1.40;;;8.90;99.90;;;;;;5070682;28;20201;-71
2021/05/16 03:51:43;;;;;;;1.98;1.58;;;8.90;99.90;;;;;;5070966;28;20703;-71
2021/05/16 03:54:10;;;;;;;3.42;1.67;;;8.90;99.90;;;;;;5071025;28;20242;-70
2021/05/16 03:56:38;;;;;;;2.28;1.40;;;8.90;99.90;;;;;;5071046;28;20200;-71
2021/05/16 03:59:04;;;;;;;1.85;1.23;;;9.00;99.90;;;;;;5070824;28;20231;-70
2021/05/16 04:01:31;;;;;;;1.80;1.40;;;9.00;99.90;;;;;;5070663;28;20715;-71
2021/05/16 04:03:57;;;;;;;4.13;1.65;;;9.00;99.90;;;;;;5070850;28;20261;-71
2021/05/16 04:06:23;;;;;;;2.30;2.10;;;9.00;99.90;;;;;;5070824;28;20212;-71
2021/05/16 04:08:49;;;;;;;2.80;1.58;;;9.00;99.90;;;;;;5070428;28;20215;-70
2021/05/16 04:11:16;;;;;;;1.55;1.35;;;8.90;99.90;;;;;;5070722;28;20227;-71
2021/05/16 04:13:43;;;;;;;2.78;1.75;;;8.90;99.90;;;;;;5070759;28;20220;-71
2021/05/16 04:16:09;;;;;;;3.72;1.30;;;8.90;99.90;;;;;;5070754;28;20215;-70
2021/05/16 04:18:35;;;;;;;2.30;1.55;;;8.90;99.90;;;;;;5070431;28;20585;-71
2021/05/16 04:21:03;;;;;;;1.48;1.20;;;8.90;99.90;;;;;;5070202;28;20577;-71
2021/05/16 04:23:30;;;;;;;1.80;1.50;;;8.90;99.90;;;;;;5070696;28;20274;-71
2021/05/16 04:25:56;;;;;;;4.13;1.55;;;9.00;99.90;;;;;;5070478;28;20203;-71
2021/05/16 04:28:22;;;;;;;2.72;1.52;;;9.00;99.90;;;;;;5070199;28;20695;-71
2021/05/16 04:30:49;;;;;;;2.58;1.30;;;9.00;99.90;;;;;;5070614;28;20221;-71
2021/05/16 04:33:15;;;;;;;3.95;1.48;;;8.90;99.90;;;;;;5070593;28;20208;-71
2021/05/16 04:35:42;;;;;;;2.63;1.15;;;9.00;99.90;;;;;;5070533;28;20215;-71
2021/05/16 04:38:08;;;;;;;2.40;1.60;;;8.90;99.90;;;;;;5070076;28;20193;-71
2021/05/16 04:40:34;;;;;;;3.35;1.38;;;8.90;99.90;;;;;;5070683;28;20216;-71
2021/05/16 04:43:00;;;;;;;3.92;1.60;;;8.90;99.90;;;;;;5070491;28;20575;-71
2021/05/16 04:45:26;;;;;;;1.40;1.20;;;8.90;99.90;;;;;;5070352;28;20208;-71
2021/05/16 04:47:54;;;;;;;2.67;1.30;;;8.90;99.90;;;;;;5070057;28;20220;-71
2021/05/16 04:50:20;;;;;;;2.50;1.25;;;8.90;99.90;;;;;;5070294;28;20258;-71
2021/05/16 04:52:46;;;;;;;3.08;1.55;;;8.90;99.90;;;;;;5070463;28;20249;-71
2021/05/16 04:55:14;;;;;;;5.47;1.58;;;8.90;99.90;;;;;;5070294;28;20210;-71
2021/05/16 04:57:41;;;;;;;1.25;1.13;;;9.00;99.90;;;;;;5070015;28;20196;-70
2021/05/16 05:00:08;;;;;;;1.63;1.40;;;9.00;99.90;;;;;;5070126;28;20224;-71
2021/05/16 05:02:36;;;;;;;2.00;1.45;;;9.00;99.90;;;;;;5070319;28;20204;-71
2021/05/16 05:05:04;;;;;;;2.28;1.40;;;9.00;99.90;;;;;;5070134;28;20246;-71
2021/05/16 05:07:30;;;;;;;1.75;1.55;;;9.00;99.90;;;;;;5070182;28;20247;-71
2021/05/16 05:09:57;;;;;;;1.55;1.40;;;9.10;99.90;;;;;;5069683;28;20314;-70
2021/05/16 05:12:23;;;;;;;3.70;2.00;;;9.00;99.90;;;;;;5070265;28;20663;-71
2021/05/16 05:14:49;;;;;;;2.17;1.20;;;9.10;99.90;;;;;;5069997;28;20204;-71
2021/05/16 05:17:15;;;;;;;3.97;1.20;;;9.10;99.90;;;;;;5070142;28;20203;-71
2021/05/16 05:19:41;;;;;;;2.03;1.42;;;9.10;99.90;;;;;;5069885;28;20570;-71
2021/05/16 05:22:08;;;;;;;2.25;1.25;;;9.10;99.90;;;;;;5069980;28;20205;-71
2021/05/16 05:24:35;;;;;;;1.60;1.20;;;9.20;99.90;;;;;;5070127;28;20201;-71
2021/05/16 05:27:01;;;;;;;1.50;1.40;;;9.30;99.90;;;;;;5069773;28;20516;-70
2021/05/16 05:29:27;;;;;;;2.05;1.33;;;9.20;99.90;;;;;;5069772;28;20212;-71
2021/05/16 05:31:53;;;;;;;2.47;1.20;;;9.20;99.90;;;;;;5093562;22;20224;-73
2021/05/16 05:34:20;;;;;;;1.70;1.15;;;9.20;99.90;;;;;;5072436;28;20220;-73
2021/05/16 05:36:46;;;;;;;1.40;0.90;;;9.30;99.90;;;;;;5053225;28;20201;-72
2021/05/16 05:39:13;;;;;;;2.08;1.65;;;9.30;99.90;;;;;;5052779;28;20205;-73
2021/05/16 05:41:39;;;;;;;1.40;1.10;;;9.40;99.90;;;;;;5053397;28;20689;-72
2021/05/16 05:44:06;;;;;;;1.55;1.00;;;9.50;99.90;;;;;;5053169;28;20229;-72
2021/05/16 05:46:32;;;;;;;1.75;1.00;;;9.60;99.90;;;;;;5053026;28;20220;-72
2021/05/16 05:48:58;;;;;;;2.17;1.20;;;9.60;99.90;;;;;;5053041;28;20208;-72
2021/05/16 05:51:25;;;;;;;2.90;1.35;;;9.70;99.90;;;;;;5053371;28;20590;-72
2021/05/16 05:53:51;;;;;;;2.22;1.27;;;9.70;99.90;;;;;;5053195;28;20225;-72
2021/05/16 05:56:18;;;;;;;1.25;1.13;;;9.80;99.90;;;;;;5053351;28;20599;-72
2021/05/16 05:58:44;;;;;;;2.20;1.25;;;9.90;99.90;;;;;;5052820;28;20254;-72
2021/05/16 06:01:10;;;;;;;3.70;2.10;;;9.90;99.90;;;;;;5052985;28;20201;-72
2021/05/16 06:03:37;;;;;;;1.92;1.30;;;9.90;99.90;;;;;;5062062;28;20216;-73
2021/05/16 06:06:03;;;;;;;1.90;1.30;;;9.90;99.90;;;;;;5071400;28;20266;-72
2021/05/16 06:08:29;;;;;;;2.28;1.10;;;9.90;99.90;;;;;;5071353;28;20223;-72
2021/05/16 06:10:56;;;;;;;2.95;1.40;;;9.90;99.90;;;;;;5071475;28;20562;-74
2021/05/16 06:13:23;;;;;;;3.10;1.33;;;9.90;99.90;;;;;;5071736;28;20224;-72
2021/05/16 06:15:50;;;;;;;3.15;1.70;;;9.90;99.90;;;;;;5071520;28;20551;-72
2021/05/16 06:18:16;;;;;;;1.92;1.00;;;9.90;99.90;;;;;;5071079;28;20660;-73
2021/05/16 06:20:42;;;;;;;3.45;1.20;;;10.00;99.90;;;;;;5071455;28;20871;-73
2021/05/16 06:23:11;;;;;;;2.97;1.17;;;10.20;99.90;;;;;;5071062;28;20270;-72
2021/05/16 06:25:37;;;;;;;2.33;1.30;;;10.40;99.90;;;;;;5071325;28;20200;-73
2021/05/16 06:28:04;;;;;;;2.42;1.13;;;10.70;99.90;;;;;;5070903;28;20698;-73
2021/05/16 06:30:32;;;;;;;2.08;1.38;;;10.80;99.90;;;;;;5070841;28;20596;-72
2021/05/16 06:32:58;;;;;;;2.90;1.25;;;10.80;99.90;;;;;;5071314;28;20244;-72
2021/05/16 06:35:25;;;;;;;3.03;1.25;;;10.90;99.90;;;;;;5071933;28;20229;-73
2021/05/16 06:37:51;;;;;;;1.92;1.30;;;10.90;99.90;;;;;;5071532;28;20649;-72
2021/05/16 06:40:17;;;;;;;2.10;1.20;;;10.90;99.90;;;;;;5071016;28;20207;-72
2021/05/16 06:42:44;;;;;;;1.98;1.20;;;11.10;99.90;;;;;;5072351;28;20228;-71
2021/05/16 06:45:11;;;;;;;3.28;1.50;;;11.10;99.90;;;;;;5072322;28;20570;-71
2021/05/16 06:47:39;;;;;;;2.70;1.35;;;11.10;99.90;;;;;;5072007;28;20266;-71
2021/05/16 06:50:07;;;;;;;2.03;1.20;;;11.20;99.90;;;;;;5072006;28;20241;-71
2021/05/16 06:52:33;;;;;;;2.58;1.25;;;11.40;99.90;;;;;;5072213;28;20310;-72
2021/05/16 06:54:59;;;;;;;3.15;1.58;;;11.70;99.90;;;;;;5072217;28;20200;-71
2021/05/16 06:57:25;;;;;;;2.85;1.95;;;12.00;99.90;;;;;;5072192;28;20717;-71
2021/05/16 06:59:52;;;;;;;4.07;1.52;;;12.20;99.90;;;;;;5071764;28;20775;-71
2021/05/16 07:02:18;;;;;;;2.80;1.38;;;12.40;99.90;;;;;;5072002;28;20757;-72
2021/05/16 07:04:47;;;;;;;1.50;1.30;;;12.40;99.90;;;;;;5070709;28;20192;-72
2021/05/16 07:07:13;;;;;;;2.70;1.15;;;12.30;99.90;;;;;;5071063;28;20221;-72
2021/05/16 07:09:42;;;;;;;1.80;1.33;;;12.20;99.90;;;;;;5070915;28;20211;-72
2021/05/16 07:12:09;;;;;;;2.95;1.50;;;12.10;99.90;;;;;;5070985;28;20710;-71
2021/05/16 07:14:35;;;;;;;0.90;0.80;;;12.00;99.90;;;;;;5071082;28;20200;-71
2021/05/16 07:17:01;;;;;;;1.20;0.80;;;11.90;99.90;;;;;;5059706;28;20197;-72
2021/05/16 07:19:27;;;;;;;1.40;1.20;;;11.90;99.90;;;;;;5050123;28;20201;-71
2021/05/16 07:21:54;;;;;;;1.60;1.20;;;11.90;99.90;;;;;;5051396;28;20212;-72
2021/05/16 07:24:21;;;;;;;2.15;1.10;;;12.00;99.90;;;;;;5055762;28;20238;-71
2021/05/16 07:26:47;;;;;;;3.70;1.42;;;12.00;99.90;;;;;;5058870;28;20248;-71
2021/05/16 07:29:13;;;;;;;2.75;1.13;;;12.10;99.90;;;;;;5051891;28;20209;-72
2021/05/16 07:31:39;;;;;;;2.33;1.23;;;12.20;99.90;;;;;;5067319;28;20663;-70
2021/05/16 07:34:06;;;;;;;2.05;1.10;;;12.20;99.90;;;;;;5065696;28;20228;-70
2021/05/16 07:36:32;;;;;;;1.88;1.10;;;12.20;99.90;;;;;;5070089;28;20282;-71
2021/05/16 07:39:00;;;;;;;3.70;1.30;;;12.30;99.90;;;;;;5070218;28;20723;-71
2021/05/16 07:41:27;;;;;;;1.95;1.27;;;12.60;99.90;;;;;;5070848;28;20205;-70
2021/05/16 07:43:53;;;;;;;2.17;1.10;;;12.60;99.90;;;;;;5070435;28;20220;-73
2021/05/16 07:46:20;;;;;;;3.70;1.37;;;12.70;99.90;;;;;;5070577;28;20201;-70
2021/05/16 07:48:46;;;;;;;5.83;1.53;;;12.80;99.90;;;;;;5069863;28;20489;-70
2021/05/16 07:51:12;;;;;;;2.90;1.50;;;12.90;99.90;;;;;;5070418;28;20455;-71
2021/05/16 07:53:38;;;;;;;2.77;1.20;;;13.00;99.90;;;;;;5069984;28;20736;-70
2021/05/16 07:56:07;;;;;;;1.40;1.17;;;13.00;99.90;;;;;;5070338;28;20471;-71
2021/05/16 07:58:34;;;;;;;1.97;1.20;;;13.00;99.90;;;;;;5070159;28;20232;-70
2021/05/16 08:01:00;;;;;;;2.77;1.33;;;13.00;99.90;;;;;;5070329;28;20469;-71
2021/05/16 08:03:26;;;;;;;4.00;1.40;;;13.10;99.90;;;;;;5070017;28;20485;-70
2021/05/16 08:05:53;;;;;;;2.57;1.20;;;13.10;99.90;;;;;;5069950;28;20545;-72
2021/05/16 08:08:19;;;;;;;2.63;1.35;;;13.00;99.90;;;;;;5069271;28;20486;-72
2021/05/16 08:10:45;;;;;;;3.80;1.50;;;13.00;99.90;;;;;;5069843;28;20189;-72
2021/05/16 08:13:12;;;;;;;3.20;1.53;;;12.90;99.90;;;;;;5069416;28;20485;-72
2021/05/16 08:15:39;;;;;;;3.95;1.38;;;12.80;99.90;;;;;;5069846;28;20454;-72
2021/05/16 08:18:06;;;;;;;2.83;1.50;;;12.70;99.90;;;;;;5069289;28;20717;-71
2021/05/16 08:20:33;;;;;;;3.80;1.52;;;12.60;99.90;;;;;;5069703;28;20459;-71
2021/05/16 08:22:59;;;;;;;1.95;1.20;;;12.60;99.90;;;;;;5069645;28;20266;-72
2021/05/16 08:25:25;;;;;;;1.73;1.20;;;12.60;99.90;;;;;;5069320;28;20207;-72
2021/05/16 08:27:52;;;;;;;3.30;1.60;;;12.70;99.90;;;;;;5068144;28;21204;-71
2021/05/16 08:30:21;;;;;;;3.20;1.55;;;12.90;99.90;;;;;;5068999;28;20835;-70
2021/05/16 08:32:48;;;;;;;7.20;1.40;;;13.20;99.90;;;;;;5069877;28;20266;-71
2021/05/16 08:35:14;;;;;;;1.67;1.30;;;13.30;99.90;;;;;;5056833;28;20526;-71
2021/05/16 08:37:41;;;;;;;6.80;1.80;;;13.30;99.90;;;;;;5049555;28;20474;-71
2021/05/16 08:40:09;;;;;;;5.10;1.67;;;13.30;99.90;;;;;;5049846;28;20455;-72
2021/05/16 08:42:36;;;;;;;3.43;1.83;;;13.20;99.90;;;;;;5049785;28;20479;-72
2021/05/16 08:45:08;;;;;;;3.70;1.60;;;13.30;99.90;;;;;;5049537;28;20467;-71
2021/05/16 08:47:35;;;;;;;3.00;2.00;;;13.40;99.90;;;;;;5049943;28;20483;-72
2021/05/16 08:50:02;;;;;;;8.30;3.03;;;13.60;99.90;;;;;;5049448;28;20462;-73
2021/05/16 08:52:28;;;;;;;2.20;1.40;;;13.80;99.90;;;;;;5049822;28;20475;-74
2021/05/16 08:54:55;;;;;;;2.87;1.50;;;13.90;99.90;;;;;;5049713;28;20463;-72
2021/05/16 08:57:21;;;;;;;4.10;2.00;;;13.90;99.90;;;;;;5049470;28;20516;-72
2021/05/16 09:00:07;;;;;;;5.80;1.77;;;14.10;99.90;;;;;;5049616;28;20463;-71
2021/05/16 09:02:34;;;;;;;3.20;1.57;;;14.30;99.90;;;;;;5049610;28;20705;-71
2021/05/16 09:05:01;;;;;;;3.10;1.70;;;14.40;99.90;;;;;;5049450;28;20463;-71
2021/05/16 09:07:31;;;;;;;2.37;1.50;;;14.60;99.90;;;;;;5052293;28;21041;-72
2021/05/16 09:09:57;;;;;;;3.50;1.50;;;14.80;99.90;;;;;;5053125;28;20546;-74
2021/05/16 09:12:24;;;;;;;6.27;1.93;;;15.10;99.90;;;;;;5053677;28;20483;-72
2021/05/16 09:14:52;;;;;;;3.23;1.67;;;15.20;99.90;;;;;;5053256;28;20597;-72
2021/05/16 09:17:27;;;;;;;2.73;1.37;;;14.90;99.90;;;;;;5053398;28;20903;-71
2021/05/16 09:19:56;;;;;;;5.67;1.97;;;14.60;99.90;;;;;;5053311;28;20874;-72
2021/05/16 09:22:34;;;;;;;3.23;1.30;;;14.80;99.90;;;;;;5053072;28;20486;-72
2021/05/16 09:25:15;;;;;;;1.87;1.30;;;15.20;99.90;;;;;;5052982;28;20499;-73
2021/05/16 09:27:43;;;;;;;3.23;1.63;;;15.70;99.90;;;;;;5071359;28;20547;-72
2021/05/16 09:30:24;;;;;;;3.07;1.60;;;15.70;99.90;;;;;;5073018;28;20831;-71
2021/05/16 09:32:53;;;;;;;4.67;1.40;;;15.90;99.90;;;;;;5073189;28;20490;-71
2021/05/16 09:35:27;;;;;;;3.30;1.63;;;15.90;99.90;;;;;;5073070;28;20941;-73
2021/05/16 09:37:58;;;;;;;3.23;1.53;;;15.80;99.90;;;;;;5072934;28;20528;-73
2021/05/16 09:40:25;;;;;;;3.50;1.67;;;15.80;99.90;;;;;;5072917;28;21014;-72
2021/05/16 09:43:16;;;;;;;3.50;1.60;;;15.70;99.90;;;;;;5073084;28;20486;-73
2021/05/16 09:46:01;;;;;;;2.33;1.40;;;15.70;99.90;;;;;;5072960;28;20545;-72
2021/05/16 09:48:37;;;;;;;5.57;2.03;;;16.00;99.90;;;;;;5072484;28;20489;-72
2021/05/16 09:51:19;;;;;;;4.70;1.70;;;16.20;99.90;;;;;;5067314;28;20466;-71
2021/05/16 09:53:51;;;;;;;3.37;1.83;;;16.40;99.90;;;;;;5066348;28;20478;-72
2021/05/16 09:56:20;;;;;;;3.63;1.70;;;16.60;99.90;;;;;;5069591;28;20466;-72
2021/05/16 09:58:46;;;;;;;3.13;1.90;;;16.70;98.90;;;;;;5069366;28;20498;-72
2021/05/16 10:01:14;;;;;;;5.50;1.63;;;16.70;99.20;;;;;;5059757;28;20458;-75
2021/05/16 10:03:40;;;;;;;2.27;1.40;;;16.90;99.70;;;;;;5067488;28;20989;-72
2021/05/16 10:06:07;;;;;;;2.93;2.13;;;17.30;98.90;;;;;;5067933;28;20458;-72
2021/05/16 10:08:36;;;;;;;3.10;1.40;;;17.70;96.00;;;;;;5069080;28;20478;-71
2021/05/16 10:11:02;;;;;;;2.93;1.43;;;17.50;96.70;;;;;;5068998;28;20462;-72
2021/05/16 10:13:31;;;;;;;2.10;1.40;;;17.70;96.90;;;;;;5070556;28;20485;-71
2021/05/16 10:15:59;;;;;;;2.73;1.30;;;18.10;95.60;;;;;;5069356;28;20478;-72
2021/05/16 10:18:27;;;;;;;3.57;1.60;;;18.40;96.80;;;;;;5069485;28;20447;-71
2021/05/16 10:20:55;;;;;;;2.27;1.50;;;18.20;93.50;;;;;;5069953;28;20463;-71
2021/05/16 10:23:31;;;;;;;4.20;1.73;;;18.00;93.80;;;;;;5068764;28;20978;-71
2021/05/16 10:26:18;;;;;;;2.63;1.30;;;17.90;96.00;;;;;;5069589;28;20500;-71
2021/05/16 10:28:56;;;;;;;2.63;1.60;;;18.40;95.40;;;;;;5067673;28;20478;-71
2021/05/16 10:31:48;;;;;;;5.30;1.33;;;18.90;93.80;;;;;;5067415;28;20459;-72
2021/05/16 10:34:40;;;;;;;2.77;1.30;;;18.90;93.70;;;;;;5068635;28;20466;-72
2021/05/16 10:37:09;;;;;;;2.10;1.30;;;19.00;92.10;;;;;;5067939;28;20457;-71
2021/05/16 10:40:03;;;;;;;4.77;1.83;;;19.00;92.10;;;;;;5069656;28;20466;-73
2021/05/16 10:42:39;;;;;;;2.10;1.40;;;18.90;92.10;;;;;;5010585;28;20482;-72
2021/05/16 10:45:12;;;;;;;3.70;1.40;;;18.60;91.50;;;;;;5066939;28;20453;-71
2021/05/16 10:48:05;;;;;;;3.80;1.77;;;18.10;91.50;;;;;;5068705;28;20474;-70
2021/05/16 10:50:34;;;;;;;3.50;1.77;;;17.50;92.20;;;;;;5066896;28;20595;-71
2021/05/16 10:53:05;;;;;;;2.10;1.30;;;17.20;93.60;;;;;;5069039;28;20479;-71
2021/05/16 10:55:34;;;;;;;4.10;1.53;;;16.80;93.00;;;;;;5068898;28;20455;-71
2021/05/16 10:58:02;;;;;;;3.77;1.63;;;16.70;93.10;;;;;;5068303;28;20458;-72
2021/05/16 11:00:34;;;;;;;4.43;1.90;;;16.80;93.70;;;;;;5069102;28;20470;-71
2021/05/16 11:03:03;;;;;;;4.60;1.97;;;17.00;95.00;;;;;;5063309;28;20559;-71
2021/05/16 11:05:55;;;;;;;3.50;1.57;;;17.70;97.50;;;;;;5069300;28;20469;-72
2021/05/16 11:09:08;;;;;;;2.50;1.40;;;18.30;93.70;;;;;;5068923;28;20487;-71
2021/05/16 11:11:37;;;;;;;3.43;1.50;;;18.90;92.00;;;;;;5069159;28;20468;-71
2021/05/16 11:14:14;;;;;;;4.37;1.60;;;19.40;93.50;;;;;;5068588;28;20518;-71
2021/05/16 11:16:45;;;;;;;2.03;1.20;;;19.50;91.70;;;;;;5069441;28;20521;-70
2021/05/16 11:19:11;;;;;;;3.33;1.37;;;19.10;88.70;;;;;;5068510;28;20969;-71
2021/05/16 11:21:37;;;;;;;2.07;1.27;;;18.90;90.50;;;;;;5069668;28;20458;-70
2021/05/16 11:24:05;;;;;;;2.43;1.27;;;18.60;90.90;;;;;;5068728;28;20994;-70
2021/05/16 11:26:31;;;;;;;5.37;1.40;;;18.60;90.70;;;;;;5069139;28;20454;-70
2021/05/16 11:28:59;;;;;;;1.93;1.40;;;19.10;91.60;;;;;;5067724;28;20486;-71
2021/05/16 11:31:27;;;;;;;3.20;1.47;;;19.70;91.40;;;;;;5065591;28;20466;-71
2021/05/16 11:33:55;;;;;;;3.00;1.30;;;20.00;88.30;;;;;;5068370;28;20494;-70
2021/05/16 11:36:23;;;;;;;5.27;1.30;;;20.10;89.60;;;;;;5068698;28;20530;-71
2021/05/16 11:38:53;;;;;;;2.50;1.43;;;19.90;89.20;;;;;;5068717;28;20459;-72
2021/05/16 11:41:32;;;;;;;2.30;1.27;;;19.90;91.40;;;;;;5068571;28;20544;-71
2021/05/16 11:43:59;;;;;;;2.70;1.57;;;20.00;90.40;;;;;;5068485;28;20480;-71
2021/05/16 11:46:29;;;;;;;3.33;1.70;;;19.70;90.70;;;;;;5068870;28;20520;-70
2021/05/16 11:48:55;;;;;;;3.00;1.50;;;19.90;89.70;;;;;;5067764;28;20486;-72
2021/05/16 11:51:22;;;;;;;4.03;1.50;;;20.00;91.10;;;;;;5068591;28;20485;-70
2021/05/16 11:53:54;;;;;;;2.80;1.67;;;20.20;90.40;;;;;;5068556;28;20482;-71
2021/05/16 11:56:22;;;;;;;1.83;1.40;;;20.10;90.70;;;;;;5068360;28;20501;-70
2021/05/16 11:58:52;;;;;;;3.27;1.73;;;19.80;90.70;;;;;;5068494;28;20551;-72
2021/05/16 12:01:20;;;;;;;2.80;1.40;;;20.00;91.30;;;;;;5067846;28;20565;-73
2021/05/16 12:03:59;;;;;;;3.00;1.53;;;19.90;85.40;;;;;;5067921;28;20485;-71
2021/05/16 12:06:26;;;;;;;4.83;1.27;;;19.60;86.70;;;;;;5068296;28;20469;-72
2021/05/16 12:09:05;;;;;;;4.00;1.50;;;19.40;85.20;;;;;;5047946;28;20483;-71
2021/05/16 12:11:33;;;;;;;3.93;2.43;;;19.30;86.30;;;;;;5047955;28;20554;-72
2021/05/16 12:14:20;;;;;;;1.93;1.50;;;19.40;90.20;;;;;;5047246;28;21424;-71
2021/05/16 12:16:51;;;;;;;2.23;1.43;;;19.70;86.90;;;;;;5041692;28;20473;-71
2021/05/16 12:19:21;;;;;;;3.20;1.40;;;19.80;87.70;;;;;;5047179;28;20463;-71
2021/05/16 12:21:50;;;;;;;2.27;1.40;;;19.40;85.30;;;;;;5047921;28;20471;-72
2021/05/16 12:24:20;;;;;;;3.60;1.47;;;18.90;87.20;;;;;;5047720;28;20466;-73
2021/05/16 12:26:47;;;;;;;3.20;1.70;;;18.70;89.50;;;;;;5047760;28;20451;-71
2021/05/16 12:29:15;;;;;;;2.53;1.73;;;18.80;91.50;;;;;;5047228;28;20541;-71
2021/05/16 12:31:42;;;;;;;2.63;1.67;;;18.80;90.00;;;;;;5047708;28;20467;-73
2021/05/16 12:34:09;;;;;;;3.93;1.63;;;18.70;89.90;;;;;;5055631;28;20486;-71
2021/05/16 12:36:54;;;;;;;3.67;1.23;;;18.40;89.80;;;;;;5067700;28;20463;-71
2021/05/16 12:39:33;;;;;;;3.40;1.40;;;18.10;89.50;;;;;;5067615;28;20460;-71
2021/05/16 12:42:00;;;;;;;3.63;1.80;;;17.70;90.40;;;;;;5073796;28;20464;-74
2021/05/16 12:44:26;;;;;;;6.70;1.73;;;17.60;90.80;;;;;;5072362;28;20929;-71
2021/05/16 12:46:54;;;;;;;1.60;1.40;;;17.40;91.00;;;;;;5074209;28;20458;-72
2021/05/16 12:49:23;;;;;;;2.80;1.40;;;17.20;90.40;;;;;;5073443;28;21359;-71
2021/05/16 12:51:55;;;;;;;2.43;1.40;;;17.10;90.80;;;;;;5074015;28;20466;-72
2021/05/16 12:54:23;;;;;;;3.00;2.30;;;17.10;91.00;;;;;;5073911;28;20490;-71
2021/05/16 12:56:57;;;;;;;3.83;1.53;;;17.10;90.80;;;;;;5073998;28;20458;-74
2021/05/16 12:59:25;;;;;;;4.67;1.83;;;17.00;90.50;;;;;;5073632;28;20466;-71